Time;durP1;ratioP1;P1;durP2;ratioP2;P2;SDS_P1;SDS_P2;PMS_P1;PMS_P2;Temp;Humidity;BMP_temperature;BMP_pressure;BME280_temperature;BME280_humidity;BME280_pressure;Samples;Min_cycle;Max_cycle;Signal;HPM_P1;HPM_P2
2023/04/20 00:01:39;;;;;;;16.47;15.40;;;4.30;99.90;;;;;;4915642;29;20451;-79
2023/04/20 00:04:06;;;;;;;15.70;14.87;;;4.30;99.90;;;;;;4915560;29;20490;-78
2023/04/20 00:06:34;;;;;;;15.93;14.93;;;4.30;99.90;;;;;;4915538;29;20494;-78
2023/04/20 00:09:03;;;;;;;16.10;15.10;;;4.30;99.90;;;;;;4915628;29;20459;-79
2023/04/20 00:11:30;;;;;;;15.83;15.07;;;4.40;99.90;;;;;;4915476;29;20965;-79
2023/04/20 00:13:57;;;;;;;20.77;19.40;;;4.50;99.90;;;;;;4915091;29;20535;-79
2023/04/20 00:16:24;;;;;;;14.13;13.33;;;4.50;99.90;;;;;;4915178;29;20959;-80
2023/04/20 00:18:51;;;;;;;15.87;14.57;;;4.40;99.90;;;;;;4915080;29;20450;-80
2023/04/20 00:21:20;;;;;;;14.13;13.40;;;4.50;99.90;;;;;;4915391;29;20572;-79
2023/04/20 00:23:48;;;;;;;15.10;14.30;;;4.60;99.90;;;;;;4915327;29;20490;-79
2023/04/20 00:26:15;;;;;;;15.73;14.83;;;4.50;99.90;;;;;;4915343;29;20458;-79
2023/04/20 00:28:42;;;;;;;16.20;15.10;;;4.50;99.90;;;;;;4914922;29;20506;-79
2023/04/20 00:31:09;;;;;;;15.87;15.07;;;4.40;99.90;;;;;;4915375;29;20692;-78
2023/04/20 00:33:36;;;;;;;16.00;15.10;;;4.30;99.90;;;;;;4914759;29;20469;-79
2023/04/20 00:36:03;;;;;;;15.60;14.70;;;4.20;99.90;;;;;;4915502;29;20522;-78
2023/04/20 00:38:29;;;;;;;13.60;12.90;;;4.20;99.90;;;;;;4915939;29;20458;-80
2023/04/20 00:40:57;;;;;;;15.70;14.70;;;4.30;99.90;;;;;;4915612;29;20460;-80
2023/04/20 00:43:24;;;;;;;16.23;15.43;;;4.30;99.90;;;;;;4911947;29;20526;-80
2023/04/20 00:45:51;;;;;;;22.33;20.50;;;4.30;99.90;;;;;;4914581;29;20450;-85
2023/04/20 00:48:18;;;;;;;19.30;17.80;;;4.40;99.90;;;;;;4915270;29;20465;-86
2023/04/20 00:50:45;;;;;;;17.33;15.53;;;4.40;99.90;;;;;;4914848;29;20459;-78
2023/04/20 00:53:13;;;;;;;17.47;16.33;;;4.30;99.90;;;;;;4914440;29;20928;-78
2023/04/20 00:55:42;;;;;;;19.70;18.20;;;4.20;99.90;;;;;;4914546;29;20481;-78
2023/04/20 00:58:11;;;;;;;17.00;15.97;;;4.10;99.90;;;;;;4914199;29;20458;-79
2023/04/20 01:00:38;;;;;;;16.40;15.30;;;4.00;99.90;;;;;;4914522;29;20665;-79
2023/04/20 01:03:06;;;;;;;17.10;16.03;;;3.90;99.90;;;;;;4914441;29;20505;-79
2023/04/20 01:05:32;;;;;;;16.80;15.90;;;3.90;99.90;;;;;;4914656;29;20500;-81
2023/04/20 01:07:59;;;;;;;24.83;22.20;;;3.90;99.90;;;;;;4914578;29;20553;-81
2023/04/20 01:10:26;;;;;;;17.90;16.40;;;3.80;99.90;;;;;;4914237;29;20475;-82
2023/04/20 01:12:52;;;;;;;18.40;17.30;;;3.80;99.90;;;;;;4914315;29;20538;-83
2023/04/20 01:15:20;;;;;;;18.47;17.37;;;3.70;99.90;;;;;;4914244;29;20583;-83
2023/04/20 01:17:48;;;;;;;18.43;17.20;;;3.70;99.90;;;;;;4913944;29;20459;-82
2023/04/20 01:20:15;;;;;;;17.47;16.43;;;3.70;99.90;;;;;;4914341;29;20458;-80
2023/04/20 01:22:48;;;;;;;17.60;16.50;;;3.70;99.90;;;;;;4914071;29;20462;-81
2023/04/20 01:25:15;;;;;;;16.47;15.57;;;3.60;99.90;;;;;;4913901;29;20486;-80
2023/04/20 01:27:42;;;;;;;16.33;15.50;;;3.60;99.90;;;;;;4913635;29;20533;-81
2023/04/20 01:30:10;;;;;;;16.80;15.80;;;3.60;99.90;;;;;;4913542;29;21000;-81
2023/04/20 01:32:36;;;;;;;16.23;15.30;;;3.60;99.90;;;;;;4913873;29;20462;-82
2023/04/20 01:35:04;;;;;;;16.93;15.67;;;3.60;99.90;;;;;;4913529;29;20453;-81
2023/04/20 01:37:31;;;;;;;17.83;16.83;;;3.60;99.90;;;;;;4913776;29;20460;-82
2023/04/20 01:39:59;;;;;;;17.47;16.37;;;3.60;99.90;;;;;;4913269;29;20948;-81
2023/04/20 01:42:25;;;;;;;18.30;16.90;;;3.60;99.90;;;;;;4913139;29;20462;-82
2023/04/20 01:44:52;;;;;;;17.23;16.30;;;3.50;99.90;;;;;;4913310;29;20482;-81
2023/04/20 01:47:19;;;;;;;17.70;16.60;;;3.60;99.90;;;;;;4913493;29;20557;-82
2023/04/20 01:49:46;;;;;;;18.33;17.43;;;3.60;99.90;;;;;;4913722;29;20543;-83
2023/04/20 01:52:12;;;;;;;17.27;16.27;;;3.50;99.90;;;;;;4913311;29;20457;-84
2023/04/20 01:54:39;;;;;;;18.30;17.30;;;3.40;99.90;;;;;;4913245;29;20979;-83
2023/04/20 01:57:07;;;;;;;18.23;17.30;;;3.40;99.90;;;;;;4925130;29;20824;-85
2023/04/20 01:59:34;;;;;;;18.07;17.00;;;3.30;99.90;;;;;;4932427;29;20453;-86
2023/04/20 02:02:00;;;;;;;18.80;17.60;;;3.30;99.90;;;;;;4932688;29;20454;-82
2023/04/20 02:04:27;;;;;;;21.13;19.53;;;3.20;99.90;;;;;;4932127;29;20485;-81
2023/04/20 02:06:54;;;;;;;18.70;17.60;;;3.10;99.90;;;;;;4932137;29;21009;-81
2023/04/20 02:09:20;;;;;;;19.33;17.73;;;3.10;99.90;;;;;;4932192;29;21023;-83
2023/04/20 02:11:47;;;;;;;19.03;17.83;;;3.00;99.90;;;;;;4932433;29;20465;-81
2023/04/20 02:14:15;;;;;;;20.27;19.17;;;2.90;99.90;;;;;;4932214;29;20563;-81
2023/04/20 02:16:42;;;;;;;20.37;19.07;;;2.90;99.90;;;;;;4931896;29;20500;-84
2023/04/20 02:19:09;;;;;;;19.37;18.17;;;2.80;99.90;;;;;;4931930;29;20485;-83
2023/04/20 02:21:35;;;;;;;18.40;17.20;;;2.90;99.90;;;;;;4932046;29;20458;-79
2023/04/20 02:24:02;;;;;;;18.50;17.30;;;2.90;99.90;;;;;;4932211;29;20530;-81
2023/04/20 02:26:29;;;;;;;18.23;17.17;;;2.90;99.90;;;;;;4932382;29;20465;-83
2023/04/20 02:28:56;;;;;;;19.27;18.13;;;2.90;99.90;;;;;;4931823;29;20484;-83
2023/04/20 02:31:24;;;;;;;19.83;18.50;;;2.90;99.90;;;;;;4931776;29;20475;-79
2023/04/20 02:33:51;;;;;;;20.00;18.80;;;2.70;99.90;;;;;;4931741;29;20453;-83
2023/04/20 02:36:17;;;;;;;21.93;20.10;;;2.60;99.90;;;;;;4932097;29;20956;-79
2023/04/20 02:38:44;;;;;;;19.00;18.00;;;2.50;99.90;;;;;;4931979;29;20861;-81
2023/04/20 02:41:11;;;;;;;17.93;16.93;;;2.50;99.90;;;;;;4931572;29;20553;-82
2023/04/20 02:43:37;;;;;;;18.80;17.80;;;2.40;99.90;;;;;;4931553;29;20930;-77
2023/04/20 02:46:04;;;;;;;20.03;18.23;;;2.50;99.90;;;;;;4932081;29;20942;-78
2023/04/20 02:48:32;;;;;;;20.20;18.80;;;2.40;99.90;;;;;;4931850;29;20461;-79
2023/04/20 02:50:59;;;;;;;19.77;18.33;;;2.60;99.90;;;;;;4931793;29;20467;-79
2023/04/20 02:53:25;;;;;;;21.50;20.00;;;2.70;99.90;;;;;;4931745;29;20460;-80
2023/04/20 02:55:52;;;;;;;20.70;19.27;;;2.70;99.90;;;;;;4931639;29;20534;-82
2023/04/20 02:58:19;;;;;;;20.60;19.00;;;2.60;99.90;;;;;;4931709;29;20469;-81
2023/04/20 03:00:46;;;;;;;18.73;17.67;;;2.40;99.90;;;;;;4931929;29;20456;-82
2023/04/20 03:03:13;;;;;;;20.80;19.50;;;2.40;99.90;;;;;;4931698;29;20459;-79
2023/04/20 03:05:41;;;;;;;19.33;18.23;;;2.30;99.90;;;;;;4932934;29;20686;-78
2023/04/20 03:08:08;;;;;;;19.30;18.00;;;2.30;99.90;;;;;;4935304;29;20504;-81
2023/04/20 03:10:35;;;;;;;21.00;19.50;;;2.30;99.90;;;;;;4935274;29;20520;-80
2023/04/20 03:13:01;;;;;;;21.73;20.30;;;2.40;99.90;;;;;;4935447;29;20449;-79
2023/04/20 03:15:28;;;;;;;22.20;20.10;;;2.40;99.90;;;;;;4935060;29;20906;-79
2023/04/20 03:17:55;;;;;;;21.50;19.43;;;2.40;99.90;;;;;;4935027;29;20550;-80
2023/04/20 03:20:22;;;;;;;21.10;19.33;;;2.30;99.90;;;;;;4934870;29;20512;-79
2023/04/20 03:22:49;;;;;;;20.53;19.33;;;2.30;99.90;;;;;;4935308;29;20461;-80
2023/04/20 03:25:16;;;;;;;21.37;19.93;;;2.20;99.90;;;;;;4935074;29;20499;-79
2023/04/20 03:27:45;;;;;;;22.17;20.60;;;2.20;99.90;;;;;;4934984;29;20457;-79
2023/04/20 03:30:12;;;;;;;20.60;19.03;;;2.20;99.90;;;;;;4934805;29;20464;-81
2023/04/20 03:32:39;;;;;;;20.50;18.83;;;2.30;99.90;;;;;;4934859;29;20449;-80
2023/04/20 03:35:07;;;;;;;21.20;20.00;;;2.30;99.90;;;;;;4934930;29;20453;-78
2023/04/20 03:37:34;;;;;;;22.00;20.67;;;2.40;99.90;;;;;;4935020;29;20820;-79
2023/04/20 03:40:02;;;;;;;22.50;21.07;;;2.30;99.90;;;;;;4935115;29;20468;-79
2023/04/20 03:42:29;;;;;;;23.20;21.60;;;2.30;99.90;;;;;;4934740;29;20457;-80
2023/04/20 03:44:56;;;;;;;22.33;20.70;;;2.20;99.90;;;;;;4934570;29;20523;-79
2023/04/20 03:47:22;;;;;;;23.80;21.80;;;2.20;99.90;;;;;;4934509;29;20460;-77
2023/04/20 03:49:49;;;;;;;21.00;19.63;;;2.10;99.90;;;;;;4934828;29;20459;-78
2023/04/20 03:52:15;;;;;;;23.53;22.00;;;2.10;99.90;;;;;;4934779;29;20464;-78
2023/04/20 03:54:42;;;;;;;22.10;20.60;;;2.20;99.90;;;;;;4934501;29;20506;-78
2023/04/20 03:57:10;;;;;;;22.77;21.27;;;2.20;99.90;;;;;;4934383;29;20449;-80
2023/04/20 03:59:37;;;;;;;22.50;21.10;;;2.20;99.90;;;;;;4934311;29;20516;-81
2023/04/20 04:02:04;;;;;;;21.17;19.67;;;2.20;99.90;;;;;;4934483;29;20863;-79
2023/04/20 04:04:31;;;;;;;22.20;20.80;;;2.20;99.90;;;;;;4934638;29;20900;-80
2023/04/20 04:06:58;;;;;;;20.67;19.53;;;2.10;99.90;;;;;;4934049;29;20458;-79
2023/04/20 04:09:25;;;;;;;21.33;20.07;;;2.00;99.90;;;;;;4934187;29;20496;-81
2023/04/20 04:11:52;;;;;;;21.37;20.17;;;2.10;99.90;;;;;;4934076;29;20461;-79
2023/04/20 04:14:20;;;;;;;22.23;20.73;;;2.20;99.90;;;;;;4934104;29;20496;-79
2023/04/20 04:16:46;;;;;;;22.83;21.13;;;2.20;99.90;;;;;;4933729;29;20484;-79
2023/04/20 04:19:13;;;;;;;22.07;20.70;;;2.20;99.90;;;;;;4934151;29;20465;-78
2023/04/20 04:21:40;;;;;;;23.60;22.00;;;2.10;99.90;;;;;;4933808;29;20589;-76
2023/04/20 04:24:07;;;;;;;22.07;20.67;;;2.10;99.90;;;;;;4933887;29;20480;-76
2023/04/20 04:26:34;;;;;;;24.47;22.97;;;2.20;99.90;;;;;;4934033;29;20867;-77
2023/04/20 04:29:00;;;;;;;22.30;21.00;;;2.10;99.90;;;;;;4934035;29;21027;-77
2023/04/20 04:31:28;;;;;;;23.67;21.77;;;2.00;99.90;;;;;;4933701;29;20464;-77
2023/04/20 04:33:55;;;;;;;25.10;23.10;;;2.10;99.90;;;;;;4933815;29;20456;-77
2023/04/20 04:36:23;;;;;;;27.33;24.70;;;2.20;99.90;;;;;;4933872;29;20581;-80
2023/04/20 04:38:50;;;;;;;26.37;24.37;;;2.20;99.90;;;;;;4933821;29;20537;-79
2023/04/20 04:41:17;;;;;;;25.03;22.60;;;2.10;99.90;;;;;;4933991;29;20464;-79
2023/04/20 04:43:44;;;;;;;25.33;23.03;;;2.10;99.90;;;;;;4933524;29;20445;-79
2023/04/20 04:46:13;;;;;;;25.40;22.90;;;2.20;99.90;;;;;;4933417;29;20498;-79
2023/04/20 04:48:42;;;;;;;26.73;24.00;;;2.20;99.90;;;;;;4933386;29;20822;-79
2023/04/20 04:51:09;;;;;;;24.13;22.40;;;2.30;99.90;;;;;;4933553;29;20521;-79
2023/04/20 04:53:36;;;;;;;23.77;22.17;;;2.30;99.90;;;;;;4933319;29;20462;-79
2023/04/20 04:56:05;;;;;;;24.87;23.10;;;2.30;99.90;;;;;;4933527;29;20453;-79
2023/04/20 04:58:32;;;;;;;26.50;24.10;;;2.30;99.90;;;;;;4933578;29;20457;-79
2023/04/20 05:00:59;;;;;;;26.73;24.00;;;2.30;99.90;;;;;;4933447;29;20456;-78
2023/04/20 05:03:25;;;;;;;26.87;24.13;;;2.40;99.90;;;;;;4933410;29;20471;-79
2023/04/20 05:05:53;;;;;;;26.23;23.40;;;2.50;99.90;;;;;;4933159;29;20500;-78
2023/04/20 05:08:21;;;;;;;25.53;23.60;;;2.60;99.90;;;;;;4933081;29;20453;-76
2023/04/20 05:10:48;;;;;;;25.30;23.60;;;2.70;99.90;;;;;;4933507;29;20552;-76
2023/04/20 05:13:14;;;;;;;31.20;23.30;;;2.80;99.90;;;;;;4933072;29;20460;-76
2023/04/20 05:15:41;;;;;;;24.07;22.13;;;2.90;99.90;;;;;;4932887;29;20482;-76
2023/04/20 05:18:08;;;;;;;24.03;22.30;;;3.00;99.90;;;;;;4932835;29;20450;-76
2023/04/20 05:20:34;;;;;;;27.47;24.70;;;3.10;99.90;;;;;;4932913;29;20802;-76
2023/04/20 05:23:02;;;;;;;23.97;22.37;;;3.50;99.90;;;;;;4933495;29;20460;-77
2023/04/20 05:25:30;;;;;;;23.53;22.07;;;4.00;99.90;;;;;;4932975;29;20499;-78
2023/04/20 05:27:56;;;;;;;23.07;21.57;;;4.30;99.90;;;;;;4932246;29;20923;-81
2023/04/20 05:30:23;;;;;;;21.83;20.40;;;4.60;99.90;;;;;;4932784;29;20465;-79
2023/04/20 05:32:50;;;;;;;20.67;19.00;;;5.00;99.90;;;;;;4932733;29;20529;-83
2023/04/20 05:35:17;;;;;;;16.60;15.50;;;5.50;99.90;;;;;;4933307;29;20457;-76
2023/04/20 05:37:46;;;;;;;16.40;15.33;;;5.90;99.90;;;;;;4933201;29;20498;-80
2023/04/20 05:40:14;;;;;;;17.93;16.43;;;6.30;99.90;;;;;;4933348;29;20460;-79
2023/04/20 05:42:41;;;;;;;16.87;15.77;;;6.60;99.90;;;;;;4934011;29;20462;-78
2023/04/20 05:45:09;;;;;;;16.30;15.20;;;6.70;99.90;;;;;;4932623;29;20669;-79
2023/04/20 05:47:36;;;;;;;14.50;13.50;;;6.80;99.90;;;;;;4932705;29;20458;-79
2023/04/20 05:50:02;;;;;;;15.80;14.80;;;7.20;99.90;;;;;;4927805;29;20450;-81
2023/04/20 05:52:29;;;;;;;14.87;13.97;;;7.50;99.90;;;;;;4913861;29;20466;-83
2023/04/20 05:54:56;;;;;;;15.77;14.67;;;7.90;99.90;;;;;;4913480;29;20558;-81
2023/04/20 05:57:24;;;;;;;16.73;15.20;;;8.20;99.90;;;;;;4913487;29;20458;-79
2023/04/20 05:59:51;;;;;;;16.57;15.27;;;8.20;99.90;;;;;;4913723;29;20486;-79
2023/04/20 06:02:18;;;;;;;14.80;13.80;;;8.70;99.90;;;;;;4913895;29;20455;-79
2023/04/20 06:04:44;;;;;;;17.23;15.70;;;8.90;99.90;;;;;;4913676;29;20501;-81
2023/04/20 06:07:11;;;;;;;16.73;15.57;;;9.20;99.90;;;;;;4913540;29;20505;-82
2023/04/20 06:09:38;;;;;;;16.60;15.20;;;9.60;99.90;;;;;;4913372;29;20447;-82
2023/04/20 06:12:05;;;;;;;17.57;15.80;;;10.00;99.90;;;;;;4913395;29;20450;-81
2023/04/20 06:14:33;;;;;;;15.30;14.10;;;10.30;99.90;;;;;;4913228;29;20478;-79
2023/04/20 06:16:59;;;;;;;16.43;15.33;;;10.60;99.90;;;;;;4913579;29;20453;-79
2023/04/20 06:19:26;;;;;;;15.60;14.70;;;10.90;99.20;;;;;;4913100;29;20458;-80
2023/04/20 06:21:53;;;;;;;16.60;15.40;;;11.00;98.40;;;;;;4913200;29;20474;-81
2023/04/20 06:24:19;;;;;;;16.97;15.87;;;11.20;98.20;;;;;;4913503;29;20481;-80
2023/04/20 06:26:46;;;;;;;16.47;15.27;;;11.00;98.10;;;;;;4913243;29;20497;-77
2023/04/20 06:29:13;;;;;;;16.27;15.17;;;11.50;97.10;;;;;;4913235;29;20450;-78
2023/04/20 06:31:41;;;;;;;17.83;16.73;;;11.80;96.40;;;;;;4912931;29;20514;-80
2023/04/20 06:34:07;;;;;;;17.67;16.43;;;12.10;96.10;;;;;;4912786;29;20458;-78
2023/04/20 06:36:35;;;;;;;18.23;17.13;;;12.30;95.60;;;;;;4913165;29;20500;-82
2023/04/20 06:39:01;;;;;;;16.73;15.60;;;12.80;95.10;;;;;;4913799;29;20561;-77
2023/04/20 06:41:28;;;;;;;16.87;15.77;;;13.20;94.30;;;;;;4917163;29;20952;-78
2023/04/20 06:43:55;;;;;;;18.93;17.63;;;13.40;93.40;;;;;;4911875;29;21079;-80
2023/04/20 06:46:21;;;;;;;18.57;17.37;;;13.70;92.70;;;;;;4913872;29;21109;-80
2023/04/20 06:48:50;;;;;;;19.13;17.43;;;13.80;91.80;;;;;;4915753;29;20984;-80
2023/04/20 06:51:16;;;;;;;18.20;17.10;;;13.60;92.00;;;;;;4908696;29;20453;-79
2023/04/20 06:53:43;;;;;;;16.90;15.90;;;14.00;91.70;;;;;;4897143;29;20530;-80
2023/04/20 06:56:10;;;;;;;20.03;18.63;;;13.90;91.10;;;;;;4909897;29;20458;-75
2023/04/20 13:47:05;;;;;;;14.97;14.07;;;10.20;99.90;;;;;;5966091;23;20656;31
2023/04/20 13:49:33;;;;;;;14.87;14.07;;;10.20;99.90;;;;;;4836205;29;20468;-75
2023/04/20 13:52:00;;;;;;;14.80;13.60;;;10.30;99.90;;;;;;4838259;29;20458;-73
2023/04/20 13:54:27;;;;;;;15.83;14.93;;;10.40;99.90;;;;;;4838320;29;20466;-74
2023/04/20 13:56:53;;;;;;;15.37;14.53;;;10.50;99.90;;;;;;4838898;29;20751;-74
2023/04/20 13:59:20;;;;;;;15.10;14.20;;;10.40;99.90;;;;;;4838931;29;20458;-73
2023/04/20 14:01:47;;;;;;;16.47;15.07;;;10.20;99.90;;;;;;4838429;29;20836;-74
2023/04/20 14:04:15;;;;;;;15.83;14.93;;;10.20;99.90;;;;;;4838834;29;21039;-74
2023/04/20 14:06:43;;;;;;;16.63;15.63;;;10.30;99.90;;;;;;4838264;29;20526;-74
2023/04/20 14:09:09;;;;;;;16.77;15.67;;;10.10;99.90;;;;;;4833048;29;20546;-73
2023/04/20 14:11:36;;;;;;;15.40;14.40;;;10.20;99.90;;;;;;4838144;29;20458;-74
2023/04/20 14:14:03;;;;;;;15.23;14.23;;;10.10;99.90;;;;;;4828221;29;20485;-73
2023/04/20 14:16:30;;;;;;;17.70;16.50;;;10.00;99.90;;;;;;4828753;29;21037;-74
2023/04/20 14:18:57;;;;;;;17.80;16.70;;;9.90;99.90;;;;;;4829566;29;20463;-74
2023/04/20 14:21:24;;;;;;;16.07;15.07;;;10.00;99.90;;;;;;4829930;29;20466;-74
2023/04/20 14:23:53;;;;;;;15.23;14.43;;;10.10;99.90;;;;;;4829240;29;20487;-74
2023/04/20 14:26:20;;;;;;;16.37;15.47;;;10.00;99.90;;;;;;4827721;29;20580;-76
2023/04/20 14:28:48;;;;;;;17.07;16.00;;;10.00;99.90;;;;;;4831179;29;20454;-76
2023/04/20 14:31:14;;;;;;;16.30;15.30;;;9.80;99.90;;;;;;4828592;29;20463;-75
2023/04/20 14:33:43;;;;;;;16.67;15.67;;;9.80;99.90;;;;;;4826250;29;20454;-77
2023/04/20 14:36:10;;;;;;;19.53;18.27;;;9.80;99.90;;;;;;4827976;29;20474;-77
2023/04/20 14:38:36;;;;;;;20.83;19.63;;;9.70;99.90;;;;;;4827285;29;20929;-75
2023/04/20 14:41:05;;;;;;;21.03;19.93;;;9.80;99.90;;;;;;4828878;29;20466;-74
2023/04/20 14:43:33;;;;;;;26.40;24.90;;;9.70;99.90;;;;;;4828239;29;20458;-75
2023/04/20 14:46:01;;;;;;;29.83;28.23;;;9.50;99.90;;;;;;4829151;29;20523;-75
2023/04/20 14:48:27;;;;;;;29.93;28.23;;;9.50;99.90;;;;;;4849892;29;22315;-75
2023/04/20 14:50:54;;;;;;;33.20;31.40;;;9.50;99.90;;;;;;4865414;29;20454;-75
2023/04/20 14:53:21;;;;;;;34.70;32.80;;;9.40;99.90;;;;;;4863961;29;20550;-75
2023/04/20 14:55:48;;;;;;;35.30;33.30;;;9.40;99.90;;;;;;4864558;29;20450;-74
2023/04/20 14:58:19;;;;;;;36.23;34.13;;;9.20;99.90;;;;;;4864623;29;20455;-75
2023/04/20 15:00:47;;;;;;;36.07;34.07;;;9.20;99.90;;;;;;4858877;29;20957;-75
2023/04/20 15:03:14;;;;;;;35.93;33.50;;;9.00;99.90;;;;;;4859628;29;20571;-75
2023/04/20 15:05:41;;;;;;;35.17;33.27;;;8.90;99.90;;;;;;4859725;29;20587;-75
2023/04/20 15:08:08;;;;;;;36.03;33.97;;;8.80;99.90;;;;;;4854988;29;20463;-76
2023/04/20 15:10:34;;;;;;;35.50;33.50;;;8.70;99.90;;;;;;4859803;29;20823;-75
2023/04/20 15:13:01;;;;;;;38.57;36.13;;;8.70;99.90;;;;;;4859862;29;20461;-76
2023/04/20 15:15:29;;;;;;;38.67;36.37;;;8.50;99.90;;;;;;4857668;29;20748;-75
2023/04/20 15:17:56;;;;;;;37.13;35.03;;;8.60;99.90;;;;;;4856771;29;20468;-75
2023/04/20 15:20:23;;;;;;;37.83;35.37;;;8.70;99.90;;;;;;4859348;29;20548;-78
2023/04/20 15:22:49;;;;;;;38.67;36.17;;;8.70;99.90;;;;;;4859084;29;20457;-76
2023/04/20 15:25:16;;;;;;;37.47;35.27;;;8.80;99.90;;;;;;4858069;29;20521;-77
2023/04/20 15:27:43;;;;;;;39.20;37.00;;;8.80;99.90;;;;;;4859221;29;20846;-74
2023/04/20 15:30:10;;;;;;;39.10;36.70;;;8.80;99.90;;;;;;4859544;29;20894;-77
2023/04/20 15:32:39;;;;;;;37.17;34.97;;;8.70;99.90;;;;;;4857692;29;20480;-75
2023/04/20 15:35:06;;;;;;;41.50;38.70;;;8.70;99.90;;;;;;4859164;29;20509;-76
2023/04/20 15:37:33;;;;;;;39.77;37.20;;;8.80;99.90;;;;;;4858978;29;20460;-76
2023/04/20 15:39:59;;;;;;;41.10;38.50;;;8.90;99.90;;;;;;4859023;29;20457;-76
2023/04/20 15:42:26;;;;;;;42.07;39.17;;;8.90;99.90;;;;;;4858686;29;20461;-76
2023/04/20 15:44:53;;;;;;;42.20;39.40;;;8.90;99.90;;;;;;4859099;29;20464;-76
2023/04/20 15:47:19;;;;;;;45.33;42.53;;;8.90;99.90;;;;;;4858576;29;20499;-76
2023/04/20 15:49:47;;;;;;;41.10;38.60;;;8.90;99.90;;;;;;4858670;29;20521;-77
2023/04/20 15:52:14;;;;;;;41.10;38.50;;;8.90;99.90;;;;;;4858763;29;20467;-77
2023/04/20 15:54:41;;;;;;;43.00;40.27;;;8.90;99.90;;;;;;4858444;29;20474;-77
2023/04/20 15:57:07;;;;;;;41.70;39.00;;;8.90;99.90;;;;;;4871984;29;20458;-77
2023/04/20 15:59:34;;;;;;;42.83;39.90;;;8.80;99.90;;;;;;4878061;29;20459;-78
2023/04/20 16:02:01;;;;;;;41.90;38.93;;;8.80;99.90;;;;;;4877311;29;20516;-79
2023/04/20 16:04:27;;;;;;;40.63;38.13;;;8.70;99.90;;;;;;4877115;29;20901;-79
2023/04/20 16:06:55;;;;;;;41.03;38.30;;;8.70;99.90;;;;;;4867004;29;20492;-79
2023/04/20 16:09:22;;;;;;;41.73;39.07;;;8.60;99.90;;;;;;4853720;29;20477;-78
2023/04/20 16:11:49;;;;;;;41.03;38.33;;;8.60;99.90;;;;;;4858040;29;20872;-80
2023/04/20 16:14:15;;;;;;;39.70;37.30;;;8.60;99.90;;;;;;4857167;29;20469;-79
2023/04/20 16:16:42;;;;;;;40.57;38.03;;;8.60;99.90;;;;;;4858420;29;20461;-78
2023/04/20 16:19:09;;;;;;;38.50;36.20;;;8.50;99.90;;;;;;4858670;29;20476;-78
2023/04/20 16:21:35;;;;;;;39.10;36.80;;;8.30;99.90;;;;;;4859381;29;20464;-81
2023/04/20 16:24:04;;;;;;;38.50;36.30;;;8.20;99.90;;;;;;4858854;29;20453;-79
2023/04/20 16:26:31;;;;;;;39.37;36.97;;;8.20;99.90;;;;;;4857210;29;20851;-77
2023/04/20 16:28:58;;;;;;;40.17;37.57;;;8.20;99.90;;;;;;4858446;29;20476;-78
2023/04/20 16:31:25;;;;;;;37.70;35.30;;;8.30;99.90;;;;;;4856505;29;20472;-77
2023/04/20 16:33:52;;;;;;;36.83;34.50;;;8.30;99.90;;;;;;4858479;29;20475;-77
2023/04/20 16:36:19;;;;;;;38.07;35.87;;;8.30;99.90;;;;;;4858260;29;20536;-76
2023/04/20 16:38:46;;;;;;;38.17;35.60;;;8.20;99.90;;;;;;4857999;29;20471;-75
2023/04/20 16:41:15;;;;;;;36.80;34.60;;;8.30;99.90;;;;;;4858043;29;20858;-76
2023/04/20 16:43:41;;;;;;;36.00;33.90;;;8.40;99.90;;;;;;4858050;29;20461;-76
2023/04/20 16:46:11;;;;;;;36.50;34.20;;;8.50;99.90;;;;;;4857756;29;20477;-77
2023/04/20 16:48:38;;;;;;;36.00;33.80;;;8.50;99.90;;;;;;4858154;29;20484;-78
2023/04/20 16:51:05;;;;;;;35.87;33.67;;;8.60;99.90;;;;;;4858162;29;20519;-76
2023/04/20 16:53:31;;;;;;;36.60;34.30;;;8.70;99.90;;;;;;4857830;29;20904;-77
2023/04/20 16:55:58;;;;;;;38.83;36.13;;;8.80;99.90;;;;;;4857756;29;20477;-76
2023/04/20 16:58:26;;;;;;;37.10;34.60;;;8.90;99.90;;;;;;4858100;29;20471;-76
2023/04/20 17:00:53;;;;;;;37.63;35.23;;;9.00;99.90;;;;;;4864116;29;20476;-76
2023/04/20 17:03:20;;;;;;;35.53;33.30;;;9.10;99.90;;;;;;4868379;29;20447;-76
2023/04/20 17:05:47;;;;;;;35.50;33.20;;;9.10;99.90;;;;;;4865789;29;20450;-76
2023/04/20 17:08:13;;;;;;;35.93;33.73;;;9.10;99.90;;;;;;4867166;29;20908;-76
2023/04/20 17:10:40;;;;;;;36.80;34.60;;;9.00;99.90;;;;;;4866792;29;20464;-76
2023/04/20 17:13:07;;;;;;;37.23;34.93;;;8.90;99.90;;;;;;4866105;29;20472;-77
2023/04/20 17:15:35;;;;;;;38.30;36.10;;;8.90;99.90;;;;;;4867111;29;20465;-77
2023/04/20 17:18:03;;;;;;;36.57;34.47;;;9.00;99.90;;;;;;4866495;29;20445;-76
2023/04/20 17:20:30;;;;;;;35.57;33.47;;;8.90;99.90;;;;;;4866036;29;20539;-76
2023/04/20 17:22:56;;;;;;;35.60;33.40;;;8.60;99.90;;;;;;4867087;29;20452;-76
2023/04/20 17:25:23;;;;;;;34.00;31.90;;;8.70;99.90;;;;;;4865198;29;20453;-76
2023/04/20 17:27:50;;;;;;;32.67;30.57;;;8.50;99.90;;;;;;4865958;29;20496;-75
2023/04/20 17:30:16;;;;;;;33.67;31.47;;;8.50;99.90;;;;;;4867076;29;20445;-76
2023/04/20 17:32:45;;;;;;;32.60;30.60;;;8.40;99.90;;;;;;4865778;29;20829;-76
2023/04/20 17:35:11;;;;;;;34.40;32.20;;;8.40;99.90;;;;;;4865467;29;20504;-76
2023/04/20 17:37:38;;;;;;;32.60;30.60;;;8.30;99.90;;;;;;4867294;29;20445;-75
2023/04/20 17:40:06;;;;;;;30.60;28.70;;;8.40;99.90;;;;;;4866150;29;20513;-75
2023/04/20 17:42:33;;;;;;;31.63;29.63;;;8.50;99.90;;;;;;4865387;29;20780;-76
2023/04/20 17:44:59;;;;;;;30.30;28.50;;;8.50;99.90;;;;;;4866726;29;20860;-76
2023/04/20 17:47:27;;;;;;;31.77;29.77;;;8.50;99.90;;;;;;4865575;29;20496;-75
2023/04/20 17:49:56;;;;;;;31.23;29.33;;;8.60;99.90;;;;;;4865353;29;20449;-76
2023/04/20 17:52:23;;;;;;;30.67;28.87;;;8.60;99.90;;;;;;4863264;29;20453;-75
2023/04/20 17:54:50;;;;;;;31.63;29.70;;;8.70;99.90;;;;;;4865664;29;20453;-77
2023/04/20 17:57:17;;;;;;;35.30;33.10;;;8.80;99.90;;;;;;4866666;29;20457;-76
2023/04/20 17:59:43;;;;;;;33.53;31.23;;;8.80;99.90;;;;;;4873151;29;20706;-75
2023/04/20 18:02:10;;;;;;;32.60;30.50;;;8.90;99.90;;;;;;4875419;29;20893;-75
2023/04/20 18:04:37;;;;;;;32.10;29.97;;;8.90;99.90;;;;;;4875659;29;20539;-75
2023/04/20 18:07:05;;;;;;;30.17;28.30;;;8.90;99.90;;;;;;4875292;29;20574;-75
2023/04/20 18:09:32;;;;;;;30.50;28.40;;;8.90;99.90;;;;;;4875116;29;20467;-75
2023/04/20 18:11:58;;;;;;;29.43;27.43;;;8.80;99.90;;;;;;4875217;29;20471;-76
2023/04/20 18:14:25;;;;;;;29.40;27.53;;;8.80;99.90;;;;;;4867953;29;20500;-75
2023/04/20 18:16:53;;;;;;;27.83;26.20;;;8.70;99.90;;;;;;4866632;29;20449;-76
2023/04/20 18:19:20;;;;;;;27.73;26.00;;;8.60;99.90;;;;;;4868650;29;20896;-76
2023/04/20 18:21:47;;;;;;;27.00;25.10;;;8.60;99.90;;;;;;4865643;29;20454;-76
2023/04/20 18:24:15;;;;;;;27.00;24.80;;;8.60;99.90;;;;;;4864539;29;21087;-76
2023/04/20 18:26:42;;;;;;;26.03;24.23;;;8.70;99.90;;;;;;4866011;29;20555;-76
2023/04/20 18:29:11;;;;;;;25.53;23.93;;;8.70;99.90;;;;;;4866313;29;20833;-76
2023/04/20 18:31:38;;;;;;;25.77;24.27;;;8.70;99.90;;;;;;4859669;29;20525;-76
2023/04/20 18:34:06;;;;;;;26.30;24.70;;;8.80;99.90;;;;;;4865970;29;20448;-76
2023/04/20 18:36:33;;;;;;;26.93;25.20;;;8.90;99.90;;;;;;4866184;29;20450;-76
2023/04/20 18:38:59;;;;;;;27.77;26.07;;;9.00;99.90;;;;;;4862572;29;20453;-76
2023/04/20 18:41:28;;;;;;;25.47;23.90;;;9.10;99.90;;;;;;4865744;29;20537;-77
2023/04/20 18:43:56;;;;;;;25.57;24.07;;;9.00;99.90;;;;;;4866330;29;20512;-78
2023/04/20 18:46:24;;;;;;;26.10;24.50;;;8.80;99.90;;;;;;4865085;29;20484;-77
2023/04/20 18:48:51;;;;;;;25.30;23.73;;;8.70;99.90;;;;;;4864934;29;21010;-76
2023/04/20 18:51:17;;;;;;;25.37;23.57;;;8.70;99.90;;;;;;4866287;29;20459;-76
2023/04/20 18:53:44;;;;;;;24.90;23.20;;;8.70;99.90;;;;;;4865033;29;20449;-75
2023/04/20 18:56:11;;;;;;;24.07;22.67;;;8.60;99.90;;;;;;4864967;29;20465;-75
2023/04/20 18:58:39;;;;;;;24.57;23.07;;;8.60;99.90;;;;;;4866405;29;20444;-77
2023/04/20 19:01:05;;;;;;;25.13;23.53;;;8.60;99.90;;;;;;4865355;29;20460;-74
2023/04/20 19:03:32;;;;;;;24.70;23.07;;;8.70;99.90;;;;;;4864445;29;20456;-76
2023/04/20 19:05:59;;;;;;;25.73;24.13;;;8.70;99.90;;;;;;4862002;29;20467;-75
2023/04/20 19:08:25;;;;;;;26.90;25.20;;;8.70;99.90;;;;;;4865076;29;20494;-76
2023/04/20 19:10:55;;;;;;;25.13;23.50;;;8.80;99.90;;;;;;4866014;29;20449;-76
2023/04/20 19:13:22;;;;;;;24.27;22.77;;;8.90;99.90;;;;;;4862724;29;20453;-76
2023/04/20 19:15:50;;;;;;;24.60;23.10;;;9.00;99.90;;;;;;4864767;29;20448;-76
2023/04/20 19:18:17;;;;;;;26.27;24.43;;;9.10;99.90;;;;;;4866449;29;20449;-76
2023/04/20 19:20:44;;;;;;;26.90;25.10;;;9.20;99.90;;;;;;4865176;29;20459;-76
2023/04/20 19:23:10;;;;;;;26.47;24.83;;;9.20;99.90;;;;;;4865447;29;20464;-76